CAL916 VHHH-RCTP
Flight info
| Callsign | CAL916 |
|---|---|
| Flight time | 1h 9m |
| Altitude | 39000 |
| Route | DALOL V631 ENVAR M750 TONGA TONGA1A |
| Aircraft | A359/H-SDE2E3GHIJ1J3J4J5LM1ORWXYZ/LB1D1 |
Departure
| Time | 2026-05-05 19:41 |
|---|---|
| Airport | Hong Kong International Airport (VHHH) |
Arrival
| Time | 2026-05-05 20:51 |
|---|---|
| Airport | Taiwan Taoyuan International Airport (RCTP) |
| Time | Latitude | Longitude | Altitude | Speed | Heading |
|---|---|---|---|---|---|
| 2026-05-05 19:05 | 22.31411 | 113.92864 | 38 ft | 0 kts | 161° |
| 2026-05-05 19:30 | 22.31432 | 113.92856 | 37 ft | 4 kts | 161° |
| 2026-05-05 19:30 | 22.31457 | 113.92847 | 36 ft | 3 kts | 161° |
| 2026-05-05 19:30 | 22.31478 | 113.92839 | 36 ft | 4 kts | 147° |
| 2026-05-05 19:30 | 22.31493 | 113.92821 | 36 ft | 4 kts | 89° |
| 2026-05-05 19:31 | 22.31488 | 113.92799 | 36 ft | 4 kts | 79° |
| 2026-05-05 19:31 | 22.31488 | 113.92771 | 34 ft | 4 kts | 104° |
| 2026-05-05 19:31 | 22.31497 | 113.92744 | 36 ft | 4 kts | 117° |
| 2026-05-05 19:31 | 22.31501 | 113.92736 | 35 ft | 0 kts | 116° |
| 2026-05-05 19:34 | 22.31498 | 113.92743 | 36 ft | 4 kts | 116° |
| 2026-05-05 19:34 | 22.31493 | 113.92790 | 35 ft | 8 kts | 83° |
| 2026-05-05 19:34 | 22.31509 | 113.92853 | 36 ft | 10 kts | 72° |
| 2026-05-05 19:35 | 22.31620 | 113.92907 | 38 ft | 12 kts | 342° |
| 2026-05-05 19:35 | 22.31708 | 113.92877 | 38 ft | 15 kts | 342° |
| 2026-05-05 19:35 | 22.31809 | 113.92837 | 38 ft | 17 kts | 339° |
| 2026-05-05 19:35 | 22.31854 | 113.92738 | 38 ft | 17 kts | 254° |
| 2026-05-05 19:36 | 22.31814 | 113.92607 | 38 ft | 20 kts | 252° |
| 2026-05-05 19:36 | 22.31765 | 113.92460 | 38 ft | 22 kts | 250° |
| 2026-05-05 19:36 | 22.31711 | 113.92297 | 38 ft | 24 kts | 250° |
| 2026-05-05 19:36 | 22.31656 | 113.92125 | 38 ft | 24 kts | 251° |
| 2026-05-05 19:37 | 22.31601 | 113.91950 | 38 ft | 25 kts | 250° |
| 2026-05-05 19:37 | 22.31540 | 113.91761 | 38 ft | 27 kts | 251° |
| 2026-05-05 19:37 | 22.31475 | 113.91559 | 38 ft | 29 kts | 251° |
| 2026-05-05 19:37 | 22.31421 | 113.91391 | 38 ft | 24 kts | 251° |
| 2026-05-05 19:38 | 22.31368 | 113.91228 | 38 ft | 23 kts | 250° |
| 2026-05-05 19:38 | 22.31313 | 113.91059 | 39 ft | 25 kts | 251° |
| 2026-05-05 19:38 | 22.31254 | 113.90875 | 39 ft | 27 kts | 251° |
| 2026-05-05 19:38 | 22.31189 | 113.90676 | 39 ft | 29 kts | 251° |
| 2026-05-05 19:39 | 22.31127 | 113.90485 | 38 ft | 25 kts | 251° |
| 2026-05-05 19:39 | 22.31068 | 113.90300 | 38 ft | 27 kts | 251° |
| 2026-05-05 19:39 | 22.31006 | 113.90107 | 38 ft | 19 kts | 251° |
| 2026-05-05 19:39 | 22.30968 | 113.89988 | 38 ft | 18 kts | 251° |
| 2026-05-05 19:40 | 22.30930 | 113.89869 | 38 ft | 11 kts | 251° |
| 2026-05-05 19:40 | 22.30960 | 113.89806 | 38 ft | 11 kts | 336° |
| 2026-05-05 19:40 | 22.31048 | 113.89768 | 36 ft | 12 kts | 340° |
| 2026-05-05 19:40 | 22.31096 | 113.89801 | 36 ft | 5 kts | 72° |
| 2026-05-05 19:41 | 22.31117 | 113.89875 | 36 ft | 27 kts | 72° |
| 2026-05-05 19:41 | 22.31263 | 113.90323 | 37 ft | 99 kts | 70° |
| 2026-05-05 19:41 | 22.31561 | 113.91246 | 45 ft | 158 kts | 72° |
| 2026-05-05 19:41 | 22.31918 | 113.92376 | 771 ft | 157 kts | 73° |
| 2026-05-05 19:42 | 22.32284 | 113.93520 | 1467 ft | 164 kts | 72° |
| 2026-05-05 19:42 | 22.32663 | 113.94686 | 2237 ft | 164 kts | 73° |
| 2026-05-05 19:42 | 22.33047 | 113.95874 | 2819 ft | 172 kts | 74° |
| 2026-05-05 19:42 | 22.33396 | 113.97154 | 3240 ft | 188 kts | 80° |
| 2026-05-05 19:43 | 22.33661 | 113.98635 | 3520 ft | 212 kts | 82° |
| 2026-05-05 19:43 | 22.33920 | 114.00255 | 4080 ft | 224 kts | 82° |
| 2026-05-05 19:43 | 22.34190 | 114.01933 | 4769 ft | 230 kts | 81° |
| 2026-05-05 19:43 | 22.34355 | 114.03666 | 5455 ft | 234 kts | 92° |
| 2026-05-05 19:44 | 22.34047 | 114.05388 | 6211 ft | 235 kts | 114° |
| 2026-05-05 19:44 | 22.33177 | 114.06879 | 6954 ft | 235 kts | 136° |
| 2026-05-05 19:44 | 22.31873 | 114.07989 | 7545 ft | 247 kts | 153° |
| 2026-05-05 19:44 | 22.30256 | 114.08642 | 8146 ft | 256 kts | 171° |
| 2026-05-05 19:45 | 22.28451 | 114.08801 | 8938 ft | 260 kts | 182° |
| 2026-05-05 19:45 | 22.26605 | 114.08770 | 9479 ft | 277 kts | 184° |
| 2026-05-05 19:45 | 22.24641 | 114.08722 | 10169 ft | 287 kts | 184° |
| 2026-05-05 19:45 | 22.22580 | 114.08682 | 10608 ft | 306 kts | 184° |
| 2026-05-05 19:46 | 22.20378 | 114.08650 | 10968 ft | 327 kts | 184° |
| 2026-05-05 19:46 | 22.18043 | 114.08875 | 11316 ft | 349 kts | 168° |
| 2026-05-05 19:46 | 22.15836 | 114.10074 | 11874 ft | 365 kts | 144° |
| 2026-05-05 19:46 | 22.14182 | 114.12197 | 12528 ft | 377 kts | 122° |
| 2026-05-05 19:47 | 22.12978 | 114.14737 | 13167 ft | 384 kts | 118° |
| 2026-05-05 19:47 | 22.11808 | 114.17360 | 13782 ft | 390 kts | 118° |
| 2026-05-05 19:47 | 22.10604 | 114.20001 | 14315 ft | 395 kts | 118° |
| 2026-05-05 19:47 | 22.09368 | 114.22660 | 14884 ft | 398 kts | 119° |
| 2026-05-05 19:48 | 22.08020 | 114.25282 | 15422 ft | 400 kts | 127° |
| 2026-05-05 19:48 | 22.06128 | 114.27452 | 15949 ft | 399 kts | 144° |
| 2026-05-05 19:48 | 22.03905 | 114.29268 | 16465 ft | 402 kts | 147° |
| 2026-05-05 19:48 | 22.01625 | 114.31045 | 16988 ft | 406 kts | 147° |
| 2026-05-05 19:49 | 21.99327 | 114.32838 | 17493 ft | 411 kts | 146° |
| 2026-05-05 19:49 | 21.97790 | 114.34042 | 17824 ft | 413 kts | 146° |
| 2026-05-05 19:49 | 21.94658 | 114.36505 | 18431 ft | 419 kts | 146° |
| 2026-05-05 19:49 | 21.92295 | 114.38366 | 18887 ft | 422 kts | 146° |
| 2026-05-05 19:50 | 21.89908 | 114.40240 | 19334 ft | 426 kts | 146° |
| 2026-05-05 19:50 | 21.87540 | 114.42179 | 19803 ft | 430 kts | 142° |
| 2026-05-05 19:50 | 21.85483 | 114.44542 | 20244 ft | 437 kts | 127° |
| 2026-05-05 19:50 | 21.84032 | 114.47417 | 20720 ft | 441 kts | 111° |
| 2026-05-05 19:51 | 21.83106 | 114.50581 | 21208 ft | 445 kts | 105° |
| 2026-05-05 19:51 | 21.82288 | 114.53814 | 21691 ft | 448 kts | 105° |
| 2026-05-05 19:51 | 21.81468 | 114.57066 | 22178 ft | 452 kts | 105° |
| 2026-05-05 19:51 | 21.80645 | 114.60299 | 22643 ft | 456 kts | 105° |
| 2026-05-05 19:52 | 21.79798 | 114.63598 | 23113 ft | 459 kts | 105° |
| 2026-05-05 19:52 | 21.78939 | 114.66929 | 23526 ft | 464 kts | 105° |
| 2026-05-05 19:52 | 21.78072 | 114.70281 | 23907 ft | 468 kts | 105° |
| 2026-05-05 19:52 | 21.77195 | 114.73666 | 24324 ft | 471 kts | 105° |
| 2026-05-05 19:53 | 21.76312 | 114.77069 | 24745 ft | 474 kts | 105° |
| 2026-05-05 19:53 | 21.75422 | 114.80496 | 25194 ft | 477 kts | 105° |
| 2026-05-05 19:53 | 21.74638 | 114.83975 | 25642 ft | 480 kts | 99° |
| 2026-05-05 19:53 | 21.74319 | 114.87550 | 26106 ft | 482 kts | 91° |
| 2026-05-05 19:54 | 21.74226 | 114.91166 | 26559 ft | 485 kts | 89° |
| 2026-05-05 19:54 | 21.74228 | 114.94807 | 27029 ft | 488 kts | 88° |
| 2026-05-05 19:54 | 21.74265 | 114.98474 | 27487 ft | 492 kts | 88° |
| 2026-05-05 19:54 | 21.74306 | 115.02161 | 28006 ft | 494 kts | 87° |
| 2026-05-05 19:55 | 21.74337 | 115.05871 | 28444 ft | 498 kts | 88° |
| 2026-05-05 19:55 | 21.74354 | 115.09610 | 28878 ft | 502 kts | 88° |
| 2026-05-05 19:55 | 21.74360 | 115.13377 | 29300 ft | 505 kts | 88° |
| 2026-05-05 19:55 | 21.74359 | 115.17170 | 29728 ft | 509 kts | 88° |
| 2026-05-05 19:56 | 21.74353 | 115.20988 | 30122 ft | 512 kts | 88° |
| 2026-05-05 19:56 | 21.74348 | 115.24832 | 30456 ft | 516 kts | 88° |
| 2026-05-05 19:56 | 21.74340 | 115.28695 | 30765 ft | 519 kts | 88° |
| 2026-05-05 19:56 | 21.74330 | 115.32602 | 31098 ft | 523 kts | 88° |
| 2026-05-05 19:57 | 21.74318 | 115.36530 | 31364 ft | 528 kts | 88° |
| 2026-05-05 19:57 | 21.74310 | 115.39153 | 31550 ft | 530 kts | 88° |
| 2026-05-05 19:57 | 21.74294 | 115.44475 | 31972 ft | 534 kts | 89° |
| 2026-05-05 19:57 | 21.74281 | 115.48480 | 32269 ft | 537 kts | 89° |
| 2026-05-05 19:58 | 21.74267 | 115.52508 | 32563 ft | 540 kts | 89° |
| 2026-05-05 19:58 | 21.74252 | 115.56555 | 32854 ft | 542 kts | 89° |
| 2026-05-05 19:58 | 21.74237 | 115.60622 | 33124 ft | 545 kts | 89° |
| 2026-05-05 19:58 | 21.74222 | 115.64657 | 33380 ft | 548 kts | 89° |
| 2026-05-05 19:59 | 21.74206 | 115.68822 | 33625 ft | 551 kts | 89° |
| 2026-05-05 19:59 | 21.74189 | 115.72897 | 33900 ft | 553 kts | 89° |
| 2026-05-05 19:59 | 21.74171 | 115.77085 | 34235 ft | 552 kts | 89° |
| 2026-05-05 19:59 | 21.74152 | 115.81209 | 34600 ft | 551 kts | 89° |
| 2026-05-05 20:00 | 21.74132 | 115.85271 | 34944 ft | 550 kts | 89° |
| 2026-05-05 20:00 | 21.74111 | 115.89376 | 35269 ft | 549 kts | 89° |
| 2026-05-05 20:00 | 21.74089 | 115.93481 | 35597 ft | 548 kts | 89° |
| 2026-05-05 20:00 | 21.74066 | 115.97581 | 35905 ft | 548 kts | 88° |
| 2026-05-05 20:01 | 21.74042 | 116.01683 | 36184 ft | 548 kts | 88° |
| 2026-05-05 20:01 | 21.74017 | 116.05784 | 36512 ft | 547 kts | 88° |
| 2026-05-05 20:01 | 21.73991 | 116.09875 | 36821 ft | 547 kts | 88° |
| 2026-05-05 20:01 | 21.73964 | 116.13960 | 37130 ft | 546 kts | 88° |
| 2026-05-05 20:02 | 21.73936 | 116.18040 | 37428 ft | 545 kts | 88° |
| 2026-05-05 20:02 | 21.73907 | 116.22116 | 37723 ft | 545 kts | 88° |
| 2026-05-05 20:02 | 21.73877 | 116.26186 | 38018 ft | 544 kts | 88° |
| 2026-05-05 20:02 | 21.73847 | 116.30246 | 38272 ft | 544 kts | 88° |
| 2026-05-05 20:03 | 21.73815 | 116.34323 | 38538 ft | 544 kts | 88° |
| 2026-05-05 20:03 | 21.73782 | 116.38377 | 38777 ft | 543 kts | 88° |
| 2026-05-05 20:03 | 21.73748 | 116.42447 | 38918 ft | 543 kts | 88° |
| 2026-05-05 20:04 | 21.73678 | 116.50560 | 38942 ft | 542 kts | 88° |
| 2026-05-05 20:04 | 21.73604 | 116.58659 | 38948 ft | 542 kts | 88° |
| 2026-05-05 20:05 | 21.73526 | 116.66712 | 38947 ft | 542 kts | 88° |
| 2026-05-05 20:05 | 21.73497 | 116.74823 | 38943 ft | 541 kts | 84° |
| 2026-05-05 20:06 | 21.74968 | 116.82656 | 38949 ft | 532 kts | 67° |
| 2026-05-05 20:06 | 21.77527 | 116.90111 | 38942 ft | 531 kts | 64° |
| 2026-05-05 20:07 | 21.80247 | 116.97504 | 38946 ft | 531 kts | 64° |
| 2026-05-05 20:07 | 21.82962 | 117.04901 | 38946 ft | 532 kts | 64° |
| 2026-05-05 20:08 | 21.85649 | 117.12316 | 38947 ft | 532 kts | 64° |
| 2026-05-05 20:08 | 21.88322 | 117.19738 | 38946 ft | 532 kts | 64° |
| 2026-05-05 20:09 | 21.90996 | 117.27177 | 38947 ft | 533 kts | 64° |
| 2026-05-05 20:09 | 21.93669 | 117.34626 | 38965 ft | 533 kts | 64° |
| 2026-05-05 20:10 | 21.96340 | 117.42079 | 38952 ft | 534 kts | 64° |
| 2026-05-05 20:10 | 21.99119 | 117.49493 | 38945 ft | 530 kts | 58° |
| 2026-05-05 20:11 | 22.02757 | 117.56363 | 38946 ft | 527 kts | 54° |
| 2026-05-05 20:11 | 22.06578 | 117.63105 | 38945 ft | 527 kts | 53° |
| 2026-05-05 20:12 | 22.10401 | 117.69793 | 38947 ft | 527 kts | 53° |
| 2026-05-05 20:12 | 22.14233 | 117.76529 | 38951 ft | 527 kts | 53° |
| 2026-05-05 20:13 | 22.18057 | 117.83281 | 38952 ft | 528 kts | 53° |
| 2026-05-05 20:13 | 22.21881 | 117.90051 | 38957 ft | 528 kts | 53° |
| 2026-05-05 20:14 | 22.25704 | 117.96827 | 38955 ft | 528 kts | 53° |
| 2026-05-05 20:14 | 22.28881 | 118.02462 | 38946 ft | 528 kts | 53° |
| 2026-05-05 20:15 | 22.32784 | 118.09175 | 38943 ft | 528 kts | 52° |
| 2026-05-05 20:15 | 22.36722 | 118.15865 | 38954 ft | 529 kts | 52° |
| 2026-05-05 20:16 | 22.40656 | 118.22590 | 38954 ft | 530 kts | 52° |
| 2026-05-05 20:16 | 22.44531 | 118.29383 | 38953 ft | 531 kts | 53° |
| 2026-05-05 20:17 | 22.48378 | 118.36215 | 38951 ft | 531 kts | 53° |
| 2026-05-05 20:17 | 22.52225 | 118.43041 | 38950 ft | 532 kts | 53° |
| 2026-05-05 20:18 | 22.56081 | 118.49873 | 38951 ft | 532 kts | 53° |
| 2026-05-05 20:18 | 22.59949 | 118.56698 | 38952 ft | 532 kts | 53° |
| 2026-05-05 20:19 | 22.63838 | 118.63508 | 38952 ft | 532 kts | 53° |
| 2026-05-05 20:19 | 22.67725 | 118.70334 | 38953 ft | 532 kts | 53° |
| 2026-05-05 20:20 | 22.71610 | 118.77171 | 38952 ft | 533 kts | 53° |
| 2026-05-05 20:20 | 22.75498 | 118.84023 | 38952 ft | 533 kts | 53° |
| 2026-05-05 20:21 | 22.79352 | 118.90826 | 38975 ft | 533 kts | 53° |
| 2026-05-05 20:21 | 22.83233 | 118.97683 | 38952 ft | 534 kts | 53° |
| 2026-05-05 20:22 | 22.87121 | 119.04564 | 38952 ft | 536 kts | 53° |
| 2026-05-05 20:22 | 22.91012 | 119.11459 | 38953 ft | 536 kts | 53° |
| 2026-05-05 20:23 | 22.94900 | 119.18358 | 38953 ft | 536 kts | 53° |
| 2026-05-05 20:23 | 22.98785 | 119.25262 | 38950 ft | 536 kts | 53° |
| 2026-05-05 20:24 | 23.02677 | 119.32185 | 38953 ft | 537 kts | 53° |
| 2026-05-05 20:24 | 23.06568 | 119.39118 | 38955 ft | 538 kts | 53° |
| 2026-05-05 20:25 | 23.10455 | 119.46052 | 38948 ft | 537 kts | 53° |
| 2026-05-05 20:25 | 23.12394 | 119.49517 | 38744 ft | 537 kts | 53° |
| 2026-05-05 20:25 | 23.14340 | 119.52993 | 38499 ft | 538 kts | 54° |
| 2026-05-05 20:25 | 23.16419 | 119.56350 | 38236 ft | 535 kts | 46° |
| 2026-05-05 20:26 | 23.18939 | 119.59293 | 37977 ft | 527 kts | 35° |
| 2026-05-05 20:26 | 23.21838 | 119.61651 | 37756 ft | 518 kts | 25° |
| 2026-05-05 20:26 | 23.24925 | 119.63654 | 37494 ft | 516 kts | 23° |
| 2026-05-05 20:26 | 23.28005 | 119.65581 | 37245 ft | 517 kts | 23° |
| 2026-05-05 20:27 | 23.31123 | 119.67531 | 36988 ft | 517 kts | 23° |
| 2026-05-05 20:27 | 23.34245 | 119.69490 | 36735 ft | 518 kts | 23° |
| 2026-05-05 20:27 | 23.37363 | 119.71451 | 36496 ft | 519 kts | 23° |
| 2026-05-05 20:27 | 23.40491 | 119.73421 | 36190 ft | 518 kts | 23° |
| 2026-05-05 20:28 | 23.43597 | 119.75382 | 35600 ft | 515 kts | 24° |
| 2026-05-05 20:28 | 23.46697 | 119.77338 | 34923 ft | 515 kts | 24° |
| 2026-05-05 20:28 | 23.49795 | 119.79315 | 34086 ft | 520 kts | 25° |
| 2026-05-05 20:28 | 23.52882 | 119.81430 | 33132 ft | 524 kts | 26° |
| 2026-05-05 20:29 | 23.55947 | 119.83571 | 32492 ft | 521 kts | 27° |
| 2026-05-05 20:29 | 23.58984 | 119.85688 | 31915 ft | 516 kts | 27° |
| 2026-05-05 20:29 | 23.61997 | 119.87778 | 31329 ft | 511 kts | 27° |
| 2026-05-05 20:29 | 23.64988 | 119.89848 | 30762 ft | 507 kts | 27° |
| 2026-05-05 20:30 | 23.67959 | 119.91901 | 30185 ft | 504 kts | 27° |
| 2026-05-05 20:30 | 23.70910 | 119.93940 | 29568 ft | 500 kts | 26° |
| 2026-05-05 20:30 | 23.73837 | 119.95962 | 28978 ft | 495 kts | 26° |
| 2026-05-05 20:30 | 23.76734 | 119.97965 | 28414 ft | 490 kts | 26° |
| 2026-05-05 20:31 | 23.79602 | 119.99947 | 27860 ft | 485 kts | 26° |
| 2026-05-05 20:31 | 23.82441 | 120.01911 | 27313 ft | 481 kts | 26° |
| 2026-05-05 20:31 | 23.85254 | 120.03857 | 26765 ft | 476 kts | 26° |
| 2026-05-05 20:31 | 23.88041 | 120.05786 | 26222 ft | 472 kts | 26° |
| 2026-05-05 20:32 | 23.90804 | 120.07699 | 25684 ft | 468 kts | 26° |
| 2026-05-05 20:32 | 23.93549 | 120.09600 | 25140 ft | 464 kts | 26° |
| 2026-05-05 20:32 | 23.96266 | 120.11484 | 24614 ft | 461 kts | 26° |
| 2026-05-05 20:32 | 23.98961 | 120.13352 | 24064 ft | 458 kts | 26° |
| 2026-05-05 20:33 | 24.01645 | 120.15214 | 23510 ft | 455 kts | 26° |
| 2026-05-05 20:33 | 24.04310 | 120.17064 | 22906 ft | 452 kts | 27° |
| 2026-05-05 20:33 | 24.06948 | 120.18897 | 22351 ft | 447 kts | 27° |
| 2026-05-05 20:33 | 24.09528 | 120.20690 | 21817 ft | 442 kts | 27° |
| 2026-05-05 20:34 | 24.12115 | 120.22491 | 21273 ft | 438 kts | 27° |
| 2026-05-05 20:34 | 24.14668 | 120.24270 | 20707 ft | 434 kts | 27° |
| 2026-05-05 20:34 | 24.17209 | 120.26036 | 20177 ft | 431 kts | 28° |
| 2026-05-05 20:34 | 24.19735 | 120.27792 | 19648 ft | 429 kts | 28° |
| 2026-05-05 20:35 | 24.22249 | 120.29541 | 19107 ft | 427 kts | 28° |
| 2026-05-05 20:35 | 24.24751 | 120.31284 | 18556 ft | 425 kts | 29° |
| 2026-05-05 20:35 | 24.27244 | 120.33022 | 18008 ft | 422 kts | 29° |
| 2026-05-05 20:35 | 24.29710 | 120.34743 | 17428 ft | 418 kts | 29° |
| 2026-05-05 20:36 | 24.32151 | 120.36448 | 16902 ft | 414 kts | 29° |
| 2026-05-05 20:36 | 24.34568 | 120.38136 | 16372 ft | 410 kts | 29° |
| 2026-05-05 20:36 | 24.36962 | 120.39809 | 15879 ft | 406 kts | 30° |
| 2026-05-05 20:36 | 24.39332 | 120.41465 | 15361 ft | 403 kts | 30° |
| 2026-05-05 20:37 | 24.41685 | 120.43110 | 14845 ft | 399 kts | 30° |
| 2026-05-05 20:37 | 24.44024 | 120.44746 | 14335 ft | 398 kts | 30° |
| 2026-05-05 20:37 | 24.46354 | 120.46377 | 13808 ft | 397 kts | 30° |
| 2026-05-05 20:37 | 24.48672 | 120.48000 | 13239 ft | 393 kts | 30° |
| 2026-05-05 20:38 | 24.50966 | 120.49608 | 12706 ft | 389 kts | 30° |
| 2026-05-05 20:38 | 24.53236 | 120.51199 | 12210 ft | 385 kts | 30° |
| 2026-05-05 20:38 | 24.55461 | 120.52759 | 11696 ft | 381 kts | 30° |
| 2026-05-05 20:38 | 24.57710 | 120.54338 | 11178 ft | 378 kts | 30° |
| 2026-05-05 20:39 | 24.59894 | 120.55871 | 10949 ft | 365 kts | 30° |
| 2026-05-05 20:39 | 24.61959 | 120.57324 | 10821 ft | 349 kts | 30° |
| 2026-05-05 20:39 | 24.63964 | 120.58735 | 10694 ft | 335 kts | 30° |
| 2026-05-05 20:39 | 24.65889 | 120.60089 | 10568 ft | 321 kts | 29° |
| 2026-05-05 20:40 | 24.67709 | 120.61478 | 10282 ft | 319 kts | 34° |
| 2026-05-05 20:40 | 24.69396 | 120.63065 | 9932 ft | 319 kts | 37° |
| 2026-05-05 20:40 | 24.71041 | 120.64686 | 9574 ft | 318 kts | 38° |
| 2026-05-05 20:40 | 24.72683 | 120.66307 | 9238 ft | 316 kts | 38° |
| 2026-05-05 20:41 | 24.74312 | 120.67914 | 8925 ft | 313 kts | 38° |
| 2026-05-05 20:41 | 24.75782 | 120.69680 | 8610 ft | 316 kts | 55° |
| 2026-05-05 20:41 | 24.76644 | 120.71898 | 8365 ft | 315 kts | 72° |
| 2026-05-05 20:41 | 24.77220 | 120.74221 | 8059 ft | 314 kts | 75° |
| 2026-05-05 20:42 | 24.77748 | 120.76541 | 7697 ft | 311 kts | 75° |
| 2026-05-05 20:42 | 24.78267 | 120.78836 | 7336 ft | 307 kts | 75° |
| 2026-05-05 20:42 | 24.78778 | 120.81105 | 6983 ft | 304 kts | 75° |
| 2026-05-05 20:42 | 24.79285 | 120.83348 | 6617 ft | 300 kts | 75° |
| 2026-05-05 20:43 | 24.80034 | 120.85455 | 6325 ft | 292 kts | 59° |
| 2026-05-05 20:43 | 24.81139 | 120.87283 | 6070 ft | 283 kts | 51° |
| 2026-05-05 20:43 | 24.82179 | 120.89086 | 5813 ft | 276 kts | 60° |
| 2026-05-05 20:43 | 24.83120 | 120.90861 | 5554 ft | 269 kts | 55° |
| 2026-05-05 20:44 | 24.84248 | 120.92468 | 5307 ft | 263 kts | 47° |
| 2026-05-05 20:44 | 24.85446 | 120.93965 | 5066 ft | 258 kts | 47° |
| 2026-05-05 20:44 | 24.86618 | 120.95422 | 4888 ft | 249 kts | 48° |
| 2026-05-05 20:44 | 24.87739 | 120.96830 | 4764 ft | 240 kts | 47° |
| 2026-05-05 20:45 | 24.89852 | 120.99517 | 4514 ft | 228 kts | 48° |
| 2026-05-05 20:45 | 24.90887 | 121.00837 | 4402 ft | 227 kts | 48° |
| 2026-05-05 20:45 | 24.91897 | 121.02124 | 4264 ft | 215 kts | 48° |
| 2026-05-05 20:46 | 24.92853 | 121.03340 | 4152 ft | 206 kts | 48° |
| 2026-05-05 20:46 | 24.93791 | 121.04528 | 4014 ft | 205 kts | 48° |
| 2026-05-05 20:46 | 24.94728 | 121.05703 | 3798 ft | 204 kts | 48° |
| 2026-05-05 20:46 | 24.95659 | 121.06875 | 3510 ft | 203 kts | 49° |
| 2026-05-05 20:47 | 24.96580 | 121.08043 | 3245 ft | 201 kts | 49° |
| 2026-05-05 20:47 | 24.97492 | 121.09197 | 2975 ft | 198 kts | 49° |
| 2026-05-05 20:47 | 24.98387 | 121.10330 | 2711 ft | 194 kts | 49° |
| 2026-05-05 20:47 | 24.99261 | 121.11437 | 2450 ft | 188 kts | 49° |
| 2026-05-05 20:48 | 25.00094 | 121.12493 | 2207 ft | 177 kts | 49° |
| 2026-05-05 20:48 | 25.00892 | 121.13504 | 2003 ft | 174 kts | 49° |
| 2026-05-05 20:48 | 25.01681 | 121.14502 | 1758 ft | 172 kts | 49° |
| 2026-05-05 20:48 | 25.02464 | 121.15494 | 1532 ft | 171 kts | 49° |
| 2026-05-05 20:49 | 25.03231 | 121.16465 | 1307 ft | 162 kts | 49° |
| 2026-05-05 20:49 | 25.03940 | 121.17364 | 1100 ft | 152 kts | 49° |
| 2026-05-05 20:49 | 25.04620 | 121.18227 | 912 ft | 142 kts | 49° |
| 2026-05-05 20:49 | 25.05251 | 121.19026 | 735 ft | 139 kts | 49° |
| 2026-05-05 20:50 | 25.05891 | 121.19836 | 574 ft | 139 kts | 49° |
| 2026-05-05 20:50 | 25.06313 | 121.20367 | 449 ft | 138 kts | 49° |
| 2026-05-05 20:50 | 25.07157 | 121.21421 | 194 ft | 138 kts | 50° |
| 2026-05-05 20:50 | 25.07772 | 121.22206 | 107 ft | 125 kts | 50° |
| 2026-05-05 20:51 | 25.08229 | 121.22794 | 105 ft | 77 kts | 49° |
| 2026-05-05 20:51 | 25.08484 | 121.23116 | 105 ft | 43 kts | 49° |
| 2026-05-05 20:51 | 25.08651 | 121.23338 | 106 ft | 33 kts | 57° |
| 2026-05-05 20:51 | 25.08713 | 121.23529 | 105 ft | 19 kts | 79° |
| 2026-05-05 20:52 | 25.08738 | 121.23670 | 105 ft | 18 kts | 79° |
| 2026-05-05 20:52 | 25.08747 | 121.23773 | 106 ft | 12 kts | 100° |
| 2026-05-05 20:52 | 25.08693 | 121.23837 | 105 ft | 12 kts | 167° |
| 2026-05-05 20:52 | 25.08630 | 121.23797 | 106 ft | 11 kts | 230° |
| 2026-05-05 20:53 | 25.08576 | 121.23726 | 105 ft | 13 kts | 230° |
| 2026-05-05 20:53 | 25.08516 | 121.23648 | 106 ft | 14 kts | 230° |
| 2026-05-05 20:53 | 25.08449 | 121.23562 | 105 ft | 15 kts | 229° |
| 2026-05-05 20:53 | 25.08376 | 121.23471 | 105 ft | 16 kts | 228° |
| 2026-05-05 20:54 | 25.08298 | 121.23373 | 106 ft | 18 kts | 229° |
| 2026-05-05 20:54 | 25.08216 | 121.23267 | 104 ft | 19 kts | 230° |
| 2026-05-05 20:54 | 25.08171 | 121.23212 | 106 ft | 6 kts | 214° |
| 2026-05-05 20:54 | 25.08137 | 121.23222 | 106 ft | 6 kts | 142° |
| 2026-05-05 20:55 | 25.08102 | 121.23253 | 105 ft | 6 kts | 140° |
| 2026-05-05 20:55 | 25.08086 | 121.23269 | 104 ft | 1 kts | 139° |
| 2026-05-05 20:55 | 25.08082 | 121.23273 | 105 ft | 0 kts | 139° |